Terminal Aerodrome Forecast
Issued by NWS Pocatello, ID

Home | Current Version | Previous Version | Text Only | Print | Product List | Glossary On
Versions: 1 2 3 4 5 6 7 8 9 10 11 12 13 14 15 16
000
FTUS45 KPIH 031100 CCA
TAFIDA
TAF COR
KIDA 031127Z 0312/0412 03015G25KT 2SM -SN BR BKN010
      TEMPO 0312/0315 3/4SM -SN BR OVC008
     FM031500 01012G22KT P6SM VCSH SCT020 BKN060
     FM040200 VRB06KT P6SM FEW080=

USA.gov is the U.S. government's official web portal to all federal, state and local government web resources and services.